x

Georgian Bay (45137) Wave Buoy

1:00pm - Thu 27th Jul 2017 All times are CDT. -5 hours from GMT.

  • Sig Wave height 0.7ft
  • Peak Period 3s
  • Wind
    7mph, 9mph gusts
  • Sea Temp 66°f
  • Air Temp 66°f
  • Sea Pressure 1014.2mb
  • Georgian Bay
  • Georgian Bay

More Historic Weather Station data

Upgrade to MSW Pro to gain access to the past 30 days of data for over 8000 Wavebouys and Weather Stations around the globe.

Join Pro

Comparision Forecast

View Surf forecast
   
Thu 07/27 1:00pm 0.7ft 3s 7 9 mph 1014.2mb 66f 66f
12:00pm 0.7ft 3s 4 4 mph 1014.3mb 65f 66f
11:00am 1ft 3s 7 9 mph 1014.3mb 64f 65f
10:00am 1ft 3s 9 11 mph 1014.3mb 64f 64f
9:00am 1ft 3s 9 9 mph 1014.2mb 63f 64f
8:00am 1ft 4s 7 7 mph 1014.3mb 63f 64f
7:00am 1.3ft 4s 9 11 mph 1013.7mb 62f 64f
6:00am 1.3ft 4s 9 9 mph 1013.5mb 62f 63f
5:00am 1.6ft 4s 9 11 mph 1013.1mb 62f 62f
4:00am 1.6ft 3s 13 13 mph 1012.8mb 62f 62f
3:00am 1.6ft 3s 13 16 mph 1012.5mb 62f 63f
2:00am 2ft 4s 18 20 mph 1012.4mb 62f 64f
1:00am 2ft 4s 13 18 mph 1012.5mb 62f 64f
12:00am 2.5ft 4s 13 13 mph 1012.9mb 62f 63f
Wed 07/26 10:00pm 4ft 4s 18 20 mph 1013.2mb 63f 64f
9:00pm 3.5ft 4s 20 27 mph 1013.3mb 63f 65f
8:00pm 3.5ft 4s 22 27 mph 1013.2mb 63f 65f
7:00pm 3.5ft 4s 16 18 mph 1013.5mb 63f 64f
6:00pm 3.5ft 4s 20 25 mph 1013.3mb 63f 64f
4:00pm 2.5ft 4s 22 27 mph 1014.9mb 63f 63f
3:00pm 2.5ft 4s 13 18 mph 1016.8mb 63f 63f
2:00pm 2.5ft 4s 18 22 mph 1016.3mb 63f 63f
1:00pm 2.5ft 4s 16 20 mph 1016.8mb 63f 64f
12:00pm 2.5ft 4s 13 13 mph 1018mb 63f 63f
11:00am 3ft 4s 13 18 mph 1018.7mb 63f 64f
10:00am 3.5ft 4s 16 20 mph 1018.5mb 63f 64f
9:00am 3ft 4s 18 20 mph 1019mb 63f 65f
8:00am 3ft 4s 20 22 mph 1019.3mb 63f 64f
7:00am 3ft 4s 18 22 mph 1018.9mb 64f 64f
6:00am 2.5ft 4s 18 20 mph 1019.5mb 64f 64f
5:00am 1.6ft 3s 18 22 mph 1020mb 64f 64f
4:00am 1.3ft 3s 16 20 mph 1020.4mb 64f 64f
3:00am 1ft 2s 11 13 mph 1020.5mb 64f 64f
2:00am 0.7ft 2s 11 13 mph 1020.6mb 64f 65f
1:00am 0.7ft 2s 9 11 mph 1021.2mb 64f 65f
12:00am 0.3ft 2s 7 9 mph 1021.8mb 64f 65f
Tue 07/25 11:00pm 0.3ft 2s 9 11 mph 1020.9mb 64f 65f
10:00pm  -  3s 7 9 mph 1021mb 64f 64f
9:00pm  -  3s  -  2 mph 1022.1mb 64f 64f
8:00pm  -  4s 7 7 mph 1022.4mb 64f 64f
7:00pm 0.3ft 3s 2 4 mph 1022.6mb 65f 65f
6:00pm 0.3ft 2s 7 7 mph 1023.2mb 65f 65f
5:00pm 0.3ft 3s 4 4 mph 1023.2mb 66f 65f
4:00pm 0.3ft 3s 7 9 mph 1023.2mb 66f 65f
3:00pm 0.3ft 2s 7 9 mph 1023.5mb 67f 65f
2:00pm 0.3ft 2s 9 9 mph 1023.6mb 68f 65f
1:00pm 0.3ft 2s 4 7 mph 1023.4mb 68f 64f
12:00pm 0.3ft 3s 2 4 mph 1023.8mb 68f 64f
11:00am 0.3ft 2s 2 2 mph 1023.9mb 66f 63f
10:00am 0.3ft 2s 2 2 mph 1024.1mb 64f 62f
9:00am 0.3ft 3s 2 4 mph 1024mb 63f 62f
8:00am 0.3ft 2s 4 4 mph 1023.8mb 63f 62f
7:00am 0.7ft 3s 4 7 mph 1023mb 63f 62f
6:00am 0.7ft 3s 7 7 mph 1022.4mb 62f 62f
5:00am 0.7ft 3s 7 9 mph 1021.6mb 62f 62f
4:00am 1ft 3s 9 9 mph 1020.9mb 62f 62f
3:00am 1ft 3s 9 11 mph 1020.3mb 62f 63f
2:00am 1ft 3s 9 9 mph 1020.1mb 62f 63f
1:00am 1ft 3s 11 13 mph 1019.7mb 62f 64f
12:00am 1ft 3s 11 11 mph 1019.3mb 62f 64f
Mon 07/24 11:00pm 1ft 3s 11 13 mph 1018.6mb 63f 64f
10:00pm 1.3ft 3s 9 11 mph 1018.1mb 63f 64f
9:00pm 2ft 4s 9 11 mph 1017.8mb 63f 64f
8:00pm 2.5ft 4s 13 18 mph 1016.9mb 63f 65f
7:00pm 3ft 4s 18 20 mph 1016.4mb 63f 65f
6:00pm 3ft 4s 22 27 mph 1015.6mb 63f 64f
5:00pm 3ft 4s 18 22 mph 1015.1mb 63f 65f
4:00pm 3ft 5s 20 25 mph 1014.6mb 63f 63f
3:00pm 3.5ft 4s 18 20 mph 1014.7mb 63f 62f
2:00pm  -   -  25
mph
1014.1mb 63f 62f
1:00pm 4.5ft 5s 25 29 mph 1013.6mb 62f 61f
12:00pm 5ft 5s 27 31 mph 1012.8mb 63f 61f
11:00am 4.5ft 5s 29 36 mph 1012.2mb 63f 60f
10:00am 4.5ft 5s 27 34 mph 1011.9mb 63f 60f
9:00am 5ft 5s 29 36 mph 1011.5mb 63f 60f
8:00am 5.5ft 5s 29 36 mph 1011mb 63f 60f
7:00am 5ft 5s 29 36 mph 1010.4mb 63f 60f
6:00am  -   -  27
mph
1009.8mb 63f 60f
5:00am 4.5ft 5s 27 31 mph 1009.1mb 64f 60f
4:00am 4.5ft 5s 27 34 mph 1008.2mb 64f 61f
3:00am 4.5ft 5s 29 34 mph 1008.2mb 64f 61f
12:00am 5ft 5s 29 34 mph 1008.9mb 65f 60f
Sun 07/23 11:00pm 6ft 5s 29 34 mph 1008.3mb 65f 61f
10:00pm 5ft 5s 31 38 mph 1007.5mb 65f 62f
9:00pm 4.5ft 5s 29 36 mph 1007.7mb 65f 62f
8:00pm 5ft 5s 27 31 mph 1007.2mb 65f 64f